sim
Sign-in with your pilot id or email,
or register
Callsign
Passwort

Schedule Details

Flight Number: DLH1794 (3)
Departure: Munich Airport (EDDM) at 10:20
Arrival: Porto Francisco de Sa Carneiro Airport (LPPR) at 13:15
Route: Lufthansa Passenger Schedule. Enter filed route here before submitting Pirep.

Weather Information
Getting current METAR information for EDDM 241920Z 04005KT CAVOK 16/13 Q1004 NOSIG
Getting current METAR information for LPPR 241930Z 30006KT 270V340 9999 SCT030 18/13 Q1021

Schedule Frequency

Route Map